createdAt,value
2022-11-15T00:00:16.721Z,9.78
2022-11-15T00:01:16.801Z,9.83
2022-11-15T00:02:16.962Z,9.78
2022-11-15T00:03:16.967Z,9.78
2022-11-15T00:04:17.068Z,9.72
2022-11-15T00:05:23.129Z,9.83
2022-11-15T00:06:17.221Z,9.78
2022-11-15T00:07:40.487Z,9.78
2022-11-15T00:08:17.582Z,9.83
2022-11-15T00:09:17.507Z,9.78
2022-11-15T00:10:17.579Z,9.83
2022-11-15T00:11:17.664Z,9.83
2022-11-15T00:12:17.735Z,9.78
2022-11-15T00:13:17.943Z,9.83
2022-11-15T00:14:17.885Z,9.78
2022-11-15T00:15:17.959Z,9.83
2022-11-15T00:16:18.064Z,9.88
2022-11-15T00:17:18.136Z,9.83
2022-11-15T00:18:18.224Z,9.78
2022-11-15T00:19:18.328Z,9.78
2022-11-15T00:20:18.413Z,9.78
2022-11-15T00:21:18.486Z,9.83
2022-11-15T00:22:18.574Z,9.78
2022-11-15T00:23:18.658Z,9.83
2022-11-15T00:24:18.792Z,9.78
2022-11-15T00:25:18.850Z,9.83
2022-11-15T00:26:18.937Z,9.78
2022-11-15T00:27:19.010Z,9.78
2022-11-15T00:28:19.082Z,9.88
2022-11-15T00:29:19.189Z,9.83
2022-11-15T00:30:19.381Z,9.78
2022-11-15T00:31:19.338Z,9.83
2022-11-15T00:32:19.423Z,9.83
2022-11-15T00:33:19.516Z,9.78
2022-11-15T00:34:19.605Z,9.83
2022-11-15T00:35:19.711Z,9.78
2022-11-15T00:36:25.758Z,9.78
2022-11-15T00:37:19.878Z,9.78
2022-11-15T00:38:19.968Z,9.78
2022-11-15T00:39:20.054Z,9.78
2022-11-15T00:40:20.129Z,9.83
2022-11-15T00:41:20.220Z,9.78
2022-11-15T00:42:20.306Z,9.83
2022-11-15T00:43:20.388Z,9.78
2022-11-15T00:44:20.465Z,9.88
2022-11-15T00:45:20.535Z,9.78
2022-11-15T00:46:20.642Z,9.78
2022-11-15T00:47:20.691Z,9.78
2022-11-15T00:48:20.768Z,9.78
2022-11-15T00:49:20.833Z,9.78
2022-11-15T00:50:20.901Z,9.83
2022-11-15T00:51:20.975Z,9.83
2022-11-15T00:52:21.071Z,9.83
2022-11-15T00:53:21.112Z,9.78
2022-11-15T00:54:21.194Z,9.83
2022-11-15T00:55:21.287Z,9.83
2022-11-15T00:56:21.378Z,9.83
2022-11-15T00:57:21.584Z,9.83
2022-11-15T00:58:21.542Z,9.99
2022-11-15T00:59:21.615Z,9.78
2022-11-15T01:00:21.698Z,9.83
2022-11-15T01:01:21.855Z,9.83
2022-11-15T01:02:21.887Z,9.78
2022-11-15T01:03:22.097Z,9.78
2022-11-15T01:04:22.042Z,9.83
2022-11-15T01:05:22.121Z,9.78
2022-11-15T01:06:22.205Z,9.78
2022-11-15T01:07:28.305Z,9.78
2022-11-15T01:08:22.361Z,9.78
2022-11-15T01:09:22.473Z,9.83
2022-11-15T01:10:22.562Z,9.83
2022-11-15T01:11:22.604Z,9.83
2022-11-15T01:12:22.704Z,9.78
2022-11-15T01:13:22.804Z,9.78
2022-11-15T01:14:25.337Z,9.83
2022-11-15T01:15:22.972Z,9.83
2022-11-15T01:16:23.036Z,9.78
2022-11-15T01:17:23.117Z,9.83
2022-11-15T01:18:23.199Z,9.78
2022-11-15T01:19:23.283Z,9.78
2022-11-15T01:20:23.364Z,9.83
2022-11-15T01:21:23.534Z,9.78
2022-11-15T01:22:23.494Z,9.78
2022-11-15T01:23:23.599Z,9.83
2022-11-15T01:24:23.689Z,9.78
2022-11-15T01:25:23.764Z,9.78
2022-11-15T01:26:23.847Z,9.78
2022-11-15T01:27:24.052Z,9.78
2022-11-15T01:28:24.022Z,9.88
2022-11-15T01:29:24.111Z,9.78
2022-11-15T01:30:24.195Z,9.78
2022-11-15T01:31:24.274Z,9.78
2022-11-15T01:32:24.352Z,9.83
2022-11-15T01:33:24.546Z,9.83
2022-11-15T01:34:24.514Z,9.78
2022-11-15T01:35:24.598Z,9.83
2022-11-15T01:36:24.683Z,9.78
2022-11-15T01:37:24.763Z,9.72
2022-11-15T01:38:30.868Z,9.78
2022-11-15T01:39:24.914Z,9.78
2022-11-15T01:40:24.986Z,9.83
2022-11-15T01:41:25.069Z,9.83
2022-11-15T01:42:25.146Z,9.83
2022-11-15T01:43:25.233Z,9.83
2022-11-15T01:44:25.403Z,9.78
2022-11-15T01:45:25.379Z,9.78
2022-11-15T01:46:25.463Z,9.78
2022-11-15T01:47:25.547Z,9.83
2022-11-15T01:48:25.624Z,9.83
2022-11-15T01:49:25.842Z,9.78
2022-11-15T01:50:25.791Z,9.78
2022-11-15T01:51:25.871Z,9.78
2022-11-15T01:52:25.962Z,9.78
2022-11-15T01:53:26.052Z,9.78
2022-11-15T01:54:26.137Z,9.78
2022-11-15T01:55:26.255Z,9.78
2022-11-15T01:56:26.302Z,9.78
2022-11-15T01:57:26.393Z,9.88
2022-11-15T01:58:26.475Z,9.78
2022-11-15T01:59:26.551Z,9.78
2022-11-15T02:00:26.644Z,9.78
2022-11-15T02:01:26.735Z,9.78
2022-11-15T02:02:26.798Z,9.78
2022-11-15T02:03:26.885Z,9.83
2022-11-15T02:04:26.986Z,9.83
2022-11-15T02:05:27.089Z,9.88
2022-11-15T02:06:27.253Z,9.78
2022-11-15T02:07:27.269Z,9.83
2022-11-15T02:08:27.294Z,9.83
2022-11-15T02:09:33.358Z,9.83
2022-11-15T02:10:27.475Z,9.83
2022-11-15T02:11:27.595Z,9.78
2022-11-15T02:12:27.613Z,9.83
2022-11-15T02:13:27.696Z,9.83
2022-11-15T02:14:27.762Z,9.78
2022-11-15T02:15:27.856Z,9.99
2022-11-15T02:16:27.938Z,9.78
2022-11-15T02:17:28.034Z,9.78
2022-11-15T02:18:28.097Z,9.78
2022-11-15T02:19:28.190Z,9.83
2022-11-15T02:20:28.278Z,9.83
2022-11-15T02:21:28.348Z,9.83
2022-11-15T02:22:28.567Z,9.51
2022-11-15T02:23:28.689Z,9.83
2022-11-15T02:24:28.596Z,9.83
2022-11-15T02:25:28.705Z,9.78
2022-11-15T02:26:28.753Z,9.78
2022-11-15T02:27:28.837Z,9.78
2022-11-15T02:28:29.046Z,9.83
2022-11-15T02:29:29.007Z,9.78
2022-11-15T02:30:29.069Z,9.78
2022-11-15T02:31:29.148Z,9.83
2022-11-15T02:32:29.250Z,9.83
2022-11-15T02:33:29.744Z,9.83
2022-11-15T02:34:29.422Z,9.83
2022-11-15T02:35:29.487Z,9.78
2022-11-15T02:36:29.565Z,9.78
2022-11-15T02:37:29.655Z,9.78
2022-11-15T02:38:29.716Z,9.78
2022-11-15T02:39:29.798Z,9.78
2022-11-15T02:40:35.830Z,9.83
2022-11-15T02:41:29.919Z,9.78
2022-11-15T02:42:30.051Z,9.78
2022-11-15T02:43:30.451Z,9.78
2022-11-15T02:44:30.180Z,9.78
2022-11-15T02:45:30.286Z,9.78
2022-11-15T02:46:30.338Z,9.83
2022-11-15T02:47:30.411Z,9.83
2022-11-15T02:48:30.506Z,9.78
2022-11-15T02:49:30.582Z,9.78
2022-11-15T02:50:30.694Z,9.78
2022-11-15T02:51:30.760Z,9.78
2022-11-15T02:52:30.842Z,9.78
2022-11-15T02:53:31.212Z,9.83
2022-11-15T02:54:31.016Z,9.88
2022-11-15T02:55:31.085Z,9.78
2022-11-15T02:56:31.279Z,9.83
2022-11-15T02:57:31.243Z,9.78
2022-11-15T02:58:31.347Z,9.88
2022-11-15T02:59:31.435Z,9.78
2022-11-15T03:00:31.544Z,9.78
2022-11-15T03:01:31.592Z,9.83
2022-11-15T03:02:31.665Z,9.83
2022-11-15T03:03:32.100Z,9.83
2022-11-15T03:04:31.839Z,9.78
2022-11-15T03:05:31.914Z,9.78
2022-11-15T03:06:32.021Z,9.78
2022-11-15T03:07:32.288Z,9.78
2022-11-15T03:08:32.192Z,9.83
2022-11-15T03:09:32.269Z,9.78
2022-11-15T03:10:32.359Z,9.78
2022-11-15T03:11:38.385Z,9.78
2022-11-15T03:12:32.498Z,9.78
2022-11-15T03:13:32.956Z,9.83
2022-11-15T03:14:32.635Z,9.83
2022-11-15T03:15:32.743Z,9.78
2022-11-15T03:16:32.825Z,9.78
2022-11-15T03:17:32.903Z,9.78
2022-11-15T03:18:33.032Z,9.78
2022-11-15T03:19:33.065Z,9.78
2022-11-15T03:20:33.149Z,9.78
2022-11-15T03:21:33.258Z,9.83
2022-11-15T03:22:33.331Z,9.83
2022-11-15T03:23:33.765Z,9.83
2022-11-15T03:24:33.531Z,9.78
2022-11-15T03:25:33.593Z,9.83
2022-11-15T03:26:33.680Z,9.83
2022-11-15T03:27:33.803Z,9.78
2022-11-15T03:28:33.837Z,9.88
2022-11-15T03:29:33.946Z,9.78
2022-11-15T03:30:34.056Z,9.78
2022-11-15T03:31:34.120Z,9.83
2022-11-15T03:32:34.213Z,9.78
2022-11-15T03:33:34.442Z,9.78
2022-11-15T03:34:34.377Z,9.78
2022-11-15T03:35:34.554Z,9.78
2022-11-15T03:36:34.547Z,9.78
2022-11-15T03:37:34.626Z,9.94
2022-11-15T03:38:34.721Z,9.83
2022-11-15T03:39:34.785Z,9.83
2022-11-15T03:40:34.885Z,9.78
2022-11-15T03:41:34.969Z,9.78
2022-11-15T03:42:41.049Z,9.78
2022-11-15T03:43:35.337Z,9.83
2022-11-15T03:44:35.168Z,9.83
2022-11-15T03:45:35.252Z,9.78
2022-11-15T03:46:35.338Z,9.83
2022-11-15T03:47:35.424Z,9.83
2022-11-15T03:48:35.510Z,9.78
2022-11-15T03:49:35.593Z,9.83
2022-11-15T03:50:35.668Z,9.83
2022-11-15T03:51:35.773Z,9.78
2022-11-15T03:52:35.882Z,9.83
2022-11-15T03:53:35.955Z,9.83
2022-11-15T03:54:36.038Z,9.88
2022-11-15T03:55:36.116Z,9.78
2022-11-15T03:56:36.196Z,9.78
2022-11-15T03:57:36.289Z,9.83
2022-11-15T03:58:36.472Z,9.72
2022-11-15T03:59:36.440Z,9.83
2022-11-15T04:00:36.517Z,9.78
2022-11-15T04:01:36.679Z,9.94
2022-11-15T04:02:36.690Z,9.83
2022-11-15T04:03:36.782Z,9.78
2022-11-15T04:04:36.869Z,9.83
2022-11-15T04:05:36.941Z,9.83
2022-11-15T04:06:37.021Z,9.78
2022-11-15T04:07:37.100Z,9.83
2022-11-15T04:08:37.195Z,9.83
2022-11-15T04:09:37.279Z,9.83
2022-11-15T04:10:37.388Z,9.83
2022-11-15T04:11:37.465Z,9.83
2022-11-15T04:12:37.541Z,9.83
2022-11-15T04:13:43.590Z,9.78
2022-11-15T04:14:37.683Z,9.83
2022-11-15T04:15:37.873Z,9.83
2022-11-15T04:16:43.555Z,9.83
2022-11-15T04:17:38.035Z,9.83
2022-11-15T04:18:38.000Z,9.78
2022-11-15T04:19:38.078Z,9.83
2022-11-15T04:20:38.184Z,9.83
2022-11-15T04:21:38.284Z,9.78
2022-11-15T04:22:38.347Z,9.83
2022-11-15T04:23:38.440Z,9.78
2022-11-15T04:24:38.504Z,9.78
2022-11-15T04:25:38.584Z,9.78
2022-11-15T04:26:38.680Z,9.78
2022-11-15T04:27:38.765Z,9.78
2022-11-15T04:28:38.833Z,9.78
2022-11-15T04:29:38.910Z,9.83
2022-11-15T04:30:39.003Z,9.83
2022-11-15T04:31:39.085Z,9.78
2022-11-15T04:32:39.270Z,9.88
2022-11-15T04:33:39.274Z,9.78
2022-11-15T04:34:39.353Z,9.78
2022-11-15T04:35:39.430Z,9.83
2022-11-15T04:36:39.513Z,9.83
2022-11-15T04:37:39.616Z,9.83
2022-11-15T04:38:39.656Z,9.35
2022-11-15T04:39:39.724Z,9.94
2022-11-15T04:40:39.788Z,9.83
2022-11-15T04:41:39.871Z,9.78
2022-11-15T04:42:39.943Z,9.78
2022-11-15T04:43:40.045Z,9.83
2022-11-15T04:44:46.075Z,9.94
2022-11-15T04:45:40.183Z,9.78
2022-11-15T04:46:40.263Z,9.78
2022-11-15T04:47:40.350Z,9.83
2022-11-15T04:48:40.436Z,9.88
2022-11-15T04:49:40.534Z,9.78
2022-11-15T04:50:40.613Z,9.83
2022-11-15T04:51:40.705Z,9.88
2022-11-15T04:52:40.791Z,9.78
2022-11-15T04:53:40.875Z,9.83
2022-11-15T04:54:40.964Z,9.83
2022-11-15T04:55:41.145Z,9.78
2022-11-15T04:56:41.144Z,9.78
2022-11-15T04:57:41.240Z,9.78
2022-11-15T04:58:41.328Z,9.78
2022-11-15T04:59:41.415Z,9.78
2022-11-15T05:00:41.636Z,9.83
2022-11-15T05:01:44.845Z,9.83
2022-11-15T05:02:41.662Z,9.78
2022-11-15T05:03:41.763Z,9.83
2022-11-15T05:04:41.823Z,9.78
2022-11-15T05:05:41.922Z,9.78
2022-11-15T05:06:41.999Z,9.83
2022-11-15T05:07:42.060Z,9.78
2022-11-15T05:08:42.123Z,9.78
2022-11-15T05:09:42.208Z,9.88
2022-11-15T05:10:42.294Z,9.78
2022-11-15T05:11:42.378Z,9.83
2022-11-15T05:12:42.543Z,9.83
2022-11-15T05:13:42.530Z,9.78
2022-11-15T05:14:43.444Z,9.78
2022-11-15T05:15:50.457Z,9.83
2022-11-15T05:16:42.783Z,9.83
2022-11-15T05:17:42.864Z,9.78
2022-11-15T05:18:43.076Z,9.83
2022-11-15T05:19:43.033Z,9.78
2022-11-15T05:20:43.095Z,9.83
2022-11-15T05:21:43.171Z,9.78
2022-11-15T05:22:43.267Z,9.78
2022-11-15T05:23:43.335Z,9.78
2022-11-15T05:24:43.450Z,9.83
2022-11-15T05:25:43.500Z,9.78
2022-11-15T05:26:43.560Z,9.83
2022-11-15T05:27:43.635Z,9.78
2022-11-15T05:28:43.716Z,9.78
2022-11-15T05:29:43.930Z,9.83
2022-11-15T05:30:43.901Z,9.78
2022-11-15T05:31:43.963Z,9.78
2022-11-15T05:32:44.033Z,9.78
2022-11-15T05:33:44.128Z,9.83
2022-11-15T05:34:44.214Z,9.83
2022-11-15T05:35:44.311Z,9.83
2022-11-15T05:36:44.400Z,9.83
2022-11-15T05:37:44.484Z,9.78
2022-11-15T05:38:44.575Z,9.78
2022-11-15T05:39:44.657Z,9.83
2022-11-15T05:40:44.855Z,9.83
2022-11-15T05:41:44.815Z,9.83
2022-11-15T05:42:44.898Z,9.78
2022-11-15T05:43:44.984Z,9.83
2022-11-15T05:44:45.077Z,9.83
2022-11-15T05:45:45.169Z,9.83
2022-11-15T05:46:51.490Z,9.88
2022-11-15T05:47:45.349Z,9.78
2022-11-15T05:48:45.434Z,9.83
2022-11-15T05:49:45.510Z,9.78
2022-11-15T05:50:45.594Z,9.78
2022-11-15T05:51:45.677Z,9.94
2022-11-15T05:52:45.775Z,9.78
2022-11-15T05:53:45.823Z,9.83
2022-11-15T05:54:45.891Z,9.78
2022-11-15T05:55:45.955Z,9.83
2022-11-15T05:56:46.030Z,9.78
2022-11-15T05:57:46.112Z,9.83
2022-11-15T05:58:46.317Z,9.83
2022-11-15T05:59:46.284Z,9.83
2022-11-15T06:00:46.384Z,9.88
2022-11-15T06:01:46.556Z,9.94
2022-11-15T06:02:46.561Z,9.83
2022-11-15T06:03:46.773Z,9.83
2022-11-15T06:04:46.806Z,9.78
2022-11-15T06:05:46.816Z,9.78
2022-11-15T06:06:46.928Z,9.72
2022-11-15T06:07:46.957Z,9.83
2022-11-15T06:08:47.057Z,9.94
2022-11-15T06:09:47.160Z,9.78
2022-11-15T06:10:47.209Z,9.83
2022-11-15T06:11:47.293Z,9.83
2022-11-15T06:12:47.377Z,9.78
2022-11-15T06:13:47.457Z,9.83
2022-11-15T06:14:47.561Z,9.78
2022-11-15T06:15:47.635Z,9.94
2022-11-15T06:16:47.744Z,9.83
2022-11-15T06:17:53.797Z,9.83
2022-11-15T06:18:47.919Z,9.94
2022-11-15T06:19:48.011Z,9.83
2022-11-15T06:20:48.202Z,9.78
2022-11-15T06:21:48.170Z,9.83
2022-11-15T06:22:48.252Z,9.78
2022-11-15T06:23:48.357Z,9.83
2022-11-15T06:24:48.440Z,9.83
2022-11-15T06:25:48.550Z,9.78
2022-11-15T06:26:48.622Z,9.83
2022-11-15T06:27:48.715Z,9.78
2022-11-15T06:28:48.802Z,9.78
2022-11-15T06:29:48.874Z,9.78
2022-11-15T06:30:52.984Z,9.78
2022-11-15T06:31:49.153Z,9.83
2022-11-15T06:32:49.122Z,9.83
2022-11-15T06:33:49.224Z,9.83
2022-11-15T06:34:49.301Z,9.83
2022-11-15T06:35:49.379Z,9.78
2022-11-15T06:36:49.555Z,9.83
2022-11-15T06:37:49.559Z,9.88
2022-11-15T06:38:49.630Z,9.72
2022-11-15T06:39:49.718Z,9.88
2022-11-15T06:40:49.792Z,9.78
2022-11-15T06:41:49.866Z,9.78
2022-11-15T06:42:49.960Z,9.83
2022-11-15T06:43:50.057Z,9.78
2022-11-15T06:44:50.131Z,9.83
2022-11-15T06:45:50.323Z,9.83
2022-11-15T06:46:50.301Z,9.83
2022-11-15T06:47:50.386Z,9.83
2022-11-15T06:48:56.610Z,9.78
2022-11-15T06:49:50.593Z,9.83
2022-11-15T06:50:50.682Z,9.88
2022-11-15T06:51:50.762Z,9.61
2022-11-15T06:52:50.860Z,9.72
2022-11-15T06:53:50.942Z,9.83
2022-11-15T06:54:51.101Z,9.78
2022-11-15T06:55:55.196Z,9.78
2022-11-15T06:56:51.198Z,9.83
2022-11-15T06:57:51.279Z,9.78
2022-11-15T06:58:51.356Z,9.78
2022-11-15T06:59:51.439Z,9.83
2022-11-15T07:00:51.692Z,9.78
2022-11-15T07:01:51.629Z,9.83
2022-11-15T07:02:51.706Z,9.78
2022-11-15T07:03:51.815Z,9.78
2022-11-15T07:04:51.892Z,9.83
2022-11-15T07:05:51.998Z,9.61
2022-11-15T07:06:52.155Z,9.78
2022-11-15T07:07:52.170Z,9.78
2022-11-15T07:08:52.262Z,9.78
2022-11-15T07:09:52.358Z,9.83
2022-11-15T07:10:52.408Z,9.78
2022-11-15T07:11:52.595Z,9.78
2022-11-15T07:12:52.577Z,9.78
2022-11-15T07:13:52.639Z,9.78
2022-11-15T07:14:52.720Z,9.83
2022-11-15T07:15:53.414Z,9.83
2022-11-15T07:16:52.871Z,9.78
2022-11-15T07:17:52.967Z,9.94
2022-11-15T07:18:53.049Z,9.83
2022-11-15T07:19:59.125Z,9.78
2022-11-15T07:20:53.223Z,9.78
2022-11-15T07:21:53.313Z,9.78
2022-11-15T07:22:53.394Z,9.78
2022-11-15T07:23:53.584Z,9.88
2022-11-15T07:24:53.554Z,9.78
2022-11-15T07:25:53.619Z,9.83
2022-11-15T07:26:53.685Z,9.94
2022-11-15T07:27:53.759Z,9.78
2022-11-15T07:28:53.844Z,9.83
2022-11-15T07:29:53.923Z,9.78
2022-11-15T07:30:53.983Z,9.83
2022-11-15T07:31:54.061Z,9.99
2022-11-15T07:32:54.169Z,9.78
2022-11-15T07:33:54.256Z,9.78
2022-11-15T07:34:54.346Z,9.78
2022-11-15T07:35:54.541Z,9.78
2022-11-15T07:36:54.487Z,9.83
2022-11-15T07:37:54.590Z,9.78
2022-11-15T07:38:54.674Z,9.72
2022-11-15T07:39:54.760Z,9.78
2022-11-15T07:40:54.859Z,9.78
2022-11-15T07:41:55.035Z,9.78
2022-11-15T07:42:55.045Z,9.83
2022-11-15T07:43:55.100Z,9.78
2022-11-15T07:44:55.189Z,9.78
2022-11-15T07:45:59.022Z,9.78
2022-11-15T07:46:55.370Z,9.83
2022-11-15T07:47:55.471Z,9.78
2022-11-15T07:48:55.551Z,9.78
2022-11-15T07:49:55.646Z,9.78
2022-11-15T07:51:01.708Z,9.78
2022-11-15T07:51:55.787Z,9.83
2022-11-15T07:52:55.884Z,9.83
2022-11-15T07:53:56.069Z,9.78
2022-11-15T07:54:56.016Z,9.56
2022-11-15T07:55:56.096Z,9.78
2022-11-15T07:56:56.180Z,9.83
2022-11-15T07:57:56.254Z,9.78
2022-11-15T07:58:56.326Z,9.78
2022-11-15T07:59:56.518Z,9.94
2022-11-15T08:00:56.735Z,9.78
2022-11-15T08:01:56.786Z,9.56
2022-11-15T08:02:56.813Z,9.67
2022-11-15T08:03:56.759Z,9.56
2022-11-15T08:04:56.873Z,9.78
2022-11-15T08:05:57.061Z,9.56
2022-11-15T08:06:57.063Z,9.61
2022-11-15T08:07:57.067Z,9.61
2022-11-15T08:08:57.163Z,9.61
2022-11-15T08:09:57.237Z,9.61
2022-11-15T08:10:57.316Z,9.61
2022-11-15T08:11:57.539Z,9.78
2022-11-15T08:12:57.528Z,9.61
2022-11-15T08:13:57.578Z,9.61
2022-11-15T08:14:57.650Z,9.56
2022-11-15T08:15:57.997Z,9.61
2022-11-15T08:16:57.840Z,9.61
2022-11-15T08:17:57.906Z,9.61
2022-11-15T08:18:57.993Z,9.61
2022-11-15T08:19:58.062Z,9.61
2022-11-15T08:20:58.134Z,9.83
2022-11-15T08:22:04.199Z,9.83
2022-11-15T08:22:58.298Z,9.67
2022-11-15T08:23:58.449Z,9.61
2022-11-15T08:24:58.440Z,9.72
2022-11-15T08:25:58.504Z,9.72
2022-11-15T08:26:58.594Z,9.56
2022-11-15T08:27:58.663Z,9.61
2022-11-15T08:28:58.753Z,9.61
2022-11-15T08:29:59.672Z,9.61
2022-11-15T08:30:58.926Z,9.61
2022-11-15T08:31:59.013Z,9.61
2022-11-15T08:32:59.071Z,9.72
2022-11-15T08:33:59.146Z,9.61
2022-11-15T08:34:59.236Z,9.61
2022-11-15T08:35:59.461Z,9.61
2022-11-15T08:36:59.429Z,9.61
2022-11-15T08:37:59.501Z,9.56
2022-11-15T08:38:59.588Z,9.61
2022-11-15T08:39:59.681Z,9.61
2022-11-15T08:40:59.868Z,9.61
2022-11-15T08:41:59.869Z,9.45
2022-11-15T08:42:59.955Z,9.61
2022-11-15T08:44:00.038Z,9.56
2022-11-15T08:45:00.111Z,9.61
2022-11-15T08:46:00.195Z,9.61
2022-11-15T08:47:00.400Z,9.72
2022-11-15T08:48:00.411Z,9.67
2022-11-15T08:49:00.480Z,9.61
2022-11-15T08:50:00.572Z,9.56
2022-11-15T08:51:00.721Z,9.61
2022-11-15T08:52:00.816Z,9.56
2022-11-15T08:53:06.824Z,9.67
2022-11-15T08:54:00.922Z,9.56
2022-11-15T08:55:01.017Z,9.67
2022-11-15T08:56:01.088Z,9.61
2022-11-15T08:57:01.207Z,9.61
2022-11-15T08:58:01.281Z,9.61
2022-11-15T08:59:01.370Z,9.61
2022-11-15T09:00:01.465Z,9.61
2022-11-15T09:01:01.633Z,9.61
2022-11-15T09:02:01.647Z,9.61
2022-11-15T09:03:01.823Z,9.61
2022-11-15T09:04:01.789Z,9.61
2022-11-15T09:05:01.870Z,9.61
2022-11-15T09:06:01.952Z,9.61
2022-11-15T09:07:02.081Z,9.61
2022-11-15T09:08:09.969Z,9.56
2022-11-15T09:09:02.283Z,9.56
2022-11-15T09:10:02.251Z,9.61
2022-11-15T09:11:02.337Z,9.56
2022-11-15T09:12:02.979Z,9.67
2022-11-15T09:13:02.519Z,9.61
2022-11-15T09:14:02.617Z,9.61
2022-11-15T09:15:02.680Z,9.56
2022-11-15T09:16:02.734Z,9.61
2022-11-15T09:17:02.828Z,9.61
2022-11-15T09:18:02.905Z,9.61
2022-11-15T09:19:06.413Z,9.56
2022-11-15T09:20:03.192Z,9.61
2022-11-15T09:21:03.165Z,9.61
2022-11-15T09:22:03.256Z,9.67
2022-11-15T09:23:03.343Z,9.56
2022-11-15T09:24:09.399Z,9.67
2022-11-15T09:25:06.266Z,9.61
2022-11-15T09:26:03.667Z,9.61
2022-11-15T09:27:03.708Z,9.61
2022-11-15T09:28:03.791Z,9.61
2022-11-15T09:29:03.872Z,9.61
2022-11-15T09:30:03.962Z,9.67
2022-11-15T09:31:04.142Z,9.56
2022-11-15T09:32:04.116Z,9.61
2022-11-15T09:33:04.253Z,9.61
2022-11-15T09:34:04.261Z,9.61
2022-11-15T09:35:04.341Z,9.67
2022-11-15T09:36:04.424Z,9.61
2022-11-15T09:37:04.536Z,9.61
2022-11-15T09:38:04.618Z,9.67
2022-11-15T09:39:04.713Z,9.56
2022-11-15T09:40:04.761Z,9.61
2022-11-15T09:41:04.840Z,9.56
2022-11-15T09:42:04.927Z,9.83
2022-11-15T09:43:05.049Z,9.61
2022-11-15T09:44:05.119Z,9.61
2022-11-15T09:45:05.222Z,9.61
2022-11-15T09:46:05.312Z,9.61
2022-11-15T09:47:05.404Z,9.61
2022-11-15T09:48:05.643Z,9.67
2022-11-15T09:49:05.559Z,9.61
2022-11-15T09:50:05.637Z,9.61
2022-11-15T09:51:05.708Z,9.61
2022-11-15T09:52:05.791Z,9.61
2022-11-15T09:53:05.879Z,9.67
2022-11-15T09:55:12.034Z,9.56
2022-11-15T09:56:06.110Z,9.61
2022-11-15T09:57:06.180Z,9.61
2022-11-15T09:58:06.274Z,9.61
2022-11-15T09:59:06.358Z,9.61
2022-11-15T10:01:06.583Z,9.61
2022-11-15T10:02:06.628Z,9.67
2022-11-15T10:03:06.709Z,9.56
2022-11-15T10:04:10.780Z,9.67
2022-11-15T10:05:06.878Z,9.56
2022-11-15T10:06:07.073Z,9.61
2022-11-15T10:07:07.104Z,9.61
2022-11-15T10:08:07.137Z,9.61
2022-11-15T10:09:07.228Z,9.61
2022-11-15T10:10:07.316Z,9.61
2022-11-15T10:11:36.125Z,9.61
2022-11-15T10:12:07.593Z,9.61
2022-11-15T10:13:07.569Z,9.61
2022-11-15T10:14:07.653Z,9.56
2022-11-15T10:15:07.759Z,9.61
2022-11-15T10:16:07.831Z,9.67
2022-11-15T10:17:07.909Z,9.61
2022-11-15T10:18:08.090Z,9.61
2022-11-15T10:19:08.071Z,9.67
2022-11-15T10:20:08.166Z,9.61
2022-11-15T10:21:08.247Z,9.61
2022-11-15T10:22:08.342Z,9.56
2022-11-15T10:23:08.448Z,9.56
2022-11-15T10:24:08.653Z,9.67
2022-11-15T10:25:08.624Z,9.67
2022-11-15T10:26:14.730Z,9.61
2022-11-15T10:27:08.778Z,9.61
2022-11-15T10:28:08.879Z,9.61
2022-11-15T10:29:08.963Z,9.67
2022-11-15T10:30:09.080Z,9.61
2022-11-15T10:31:13.072Z,9.56
2022-11-15T10:32:09.218Z,9.61
2022-11-15T10:33:09.263Z,9.56
2022-11-15T10:34:09.341Z,9.61
2022-11-15T10:35:09.445Z,9.61
2022-11-15T10:36:09.532Z,9.61
2022-11-15T10:37:09.595Z,9.61
2022-11-15T10:38:09.711Z,9.61
2022-11-15T10:39:09.765Z,9.56
2022-11-15T10:40:09.854Z,9.61
2022-11-15T10:41:09.951Z,9.67
2022-11-15T10:42:13.997Z,9.61
2022-11-15T10:43:10.145Z,9.56
2022-11-15T10:44:10.203Z,9.67
2022-11-15T10:45:10.298Z,9.61
2022-11-15T10:46:39.418Z,9.61
2022-11-15T10:47:10.502Z,9.56
2022-11-15T10:48:10.565Z,9.56
2022-11-15T10:49:10.644Z,9.61
2022-11-15T10:50:10.727Z,9.61
2022-11-15T10:51:10.792Z,9.61
2022-11-15T10:52:10.879Z,9.67
2022-11-15T10:53:11.052Z,9.56
2022-11-15T10:54:13.777Z,9.56
2022-11-15T10:55:11.118Z,9.56
2022-11-15T10:56:11.181Z,9.61
2022-11-15T10:57:17.239Z,9.61
2022-11-15T10:58:11.389Z,9.56
2022-11-15T10:59:11.551Z,9.56
2022-11-15T11:00:11.498Z,9.61
2022-11-15T11:01:11.671Z,9.61
2022-11-15T11:02:11.672Z,9.61
2022-11-15T11:03:11.758Z,9.72
2022-11-15T11:04:11.923Z,9.61
2022-11-15T11:05:11.949Z,9.61
2022-11-15T11:06:12.034Z,9.61
2022-11-15T11:07:12.198Z,9.61
2022-11-15T11:08:12.209Z,9.61
2022-11-15T11:09:12.261Z,9.56
2022-11-15T11:10:29.287Z,9.67
2022-11-15T11:11:12.534Z,9.67
2022-11-15T11:12:12.503Z,9.61
2022-11-15T11:13:12.564Z,9.61
2022-11-15T11:14:12.654Z,9.61
2022-11-15T11:15:12.729Z,9.61
2022-11-15T11:16:12.820Z,9.61
2022-11-15T11:17:12.928Z,9.56
2022-11-15T11:18:13.007Z,9.56
2022-11-15T11:19:13.085Z,9.61
2022-11-15T11:20:13.159Z,9.61
2022-11-15T11:21:13.220Z,9.61
2022-11-15T11:22:13.302Z,9.61
2022-11-15T11:23:13.532Z,9.67
2022-11-15T11:24:13.496Z,9.61
2022-11-15T11:25:13.578Z,9.61
2022-11-15T11:26:13.668Z,9.56
2022-11-15T11:27:13.741Z,9.61
2022-11-15T11:28:21.076Z,9.61
2022-11-15T11:29:13.920Z,9.56
2022-11-15T11:30:13.998Z,9.61
2022-11-15T11:31:14.083Z,9.61
2022-11-15T11:32:14.157Z,9.56
2022-11-15T11:33:14.242Z,9.61
2022-11-15T11:34:14.317Z,9.67
2022-11-15T11:35:14.379Z,9.61
2022-11-15T11:36:14.457Z,9.61
2022-11-15T11:37:14.553Z,9.61
2022-11-15T11:38:16.360Z,9.61
2022-11-15T11:39:14.712Z,9.56
2022-11-15T11:40:14.784Z,9.61
2022-11-15T11:41:14.870Z,9.61
2022-11-15T11:42:14.963Z,9.61
2022-11-15T11:43:15.047Z,9.61
2022-11-15T11:44:15.143Z,9.61
2022-11-15T11:45:15.342Z,9.61
2022-11-15T11:46:15.297Z,9.61
2022-11-15T11:47:15.383Z,9.61
2022-11-15T11:48:15.480Z,9.61
2022-11-15T11:49:15.564Z,9.72
2022-11-15T11:50:15.886Z,9.61
2022-11-15T11:51:15.733Z,9.56
2022-11-15T11:52:15.810Z,9.61
2022-11-15T11:53:15.899Z,9.61
2022-11-15T11:54:15.970Z,9.61
2022-11-15T11:55:16.049Z,9.61
2022-11-15T11:56:16.231Z,9.56
2022-11-15T11:57:16.197Z,9.61
2022-11-15T11:58:16.285Z,9.61
2022-11-15T11:59:22.346Z,9.61
2022-11-15T12:00:16.458Z,9.61
2022-11-15T12:01:16.664Z,9.61
2022-11-15T12:02:16.748Z,9.61
2022-11-15T12:03:16.736Z,9.61
2022-11-15T12:04:16.796Z,9.67
2022-11-15T12:05:16.856Z,9.61
2022-11-15T12:06:16.921Z,9.56
2022-11-15T12:07:17.174Z,9.56
2022-11-15T12:08:17.094Z,9.67
2022-11-15T12:09:17.181Z,9.61
2022-11-15T12:10:17.267Z,9.61
2022-11-15T12:11:17.359Z,9.67
2022-11-15T12:12:17.455Z,9.61
2022-11-15T12:13:17.591Z,9.61
2022-11-15T12:14:17.575Z,9.67
2022-11-15T12:15:17.681Z,9.61
2022-11-15T12:16:17.773Z,9.61
2022-11-15T12:17:17.857Z,9.61
2022-11-15T12:18:17.947Z,9.61
2022-11-15T12:19:18.126Z,9.61
2022-11-15T12:20:18.708Z,9.61
2022-11-15T12:21:18.156Z,9.61
2022-11-15T12:22:18.248Z,9.67
2022-11-15T12:23:18.349Z,9.61
2022-11-15T12:24:18.440Z,9.61
2022-11-15T12:25:18.559Z,9.61
2022-11-15T12:26:18.611Z,9.61
2022-11-15T12:27:23.398Z,9.61
2022-11-15T12:28:18.798Z,9.61
2022-11-15T12:29:18.916Z,9.56
2022-11-15T12:30:25.309Z,9.56
2022-11-15T12:31:19.075Z,9.61
2022-11-15T12:32:19.161Z,9.72
2022-11-15T12:33:19.250Z,9.61
2022-11-15T12:34:19.357Z,9.67
2022-11-15T12:35:19.408Z,9.61
2022-11-15T12:36:19.554Z,9.61
2022-11-15T12:37:19.559Z,9.61
2022-11-15T12:38:19.647Z,9.61
2022-11-15T12:39:19.777Z,9.56
2022-11-15T12:40:19.821Z,9.61
2022-11-15T12:41:20.034Z,9.61
2022-11-15T12:42:20.029Z,9.61
2022-11-15T12:43:20.077Z,9.61
2022-11-15T12:44:20.172Z,9.61
2022-11-15T12:45:20.256Z,9.61
2022-11-15T12:46:20.357Z,9.61
2022-11-15T12:47:23.198Z,9.61
2022-11-15T12:48:20.545Z,9.67
2022-11-15T12:49:20.606Z,9.61
2022-11-15T12:50:20.690Z,9.56
2022-11-15T12:51:20.780Z,9.61
2022-11-15T12:52:20.888Z,9.56
2022-11-15T12:53:20.932Z,9.61
2022-11-15T12:54:21.147Z,9.56
2022-11-15T12:55:21.117Z,9.61
2022-11-15T12:56:21.205Z,9.61
2022-11-15T12:57:21.285Z,9.61
2022-11-15T12:58:21.372Z,9.67
2022-11-15T12:59:21.565Z,9.61
2022-11-15T13:00:25.127Z,9.61
2022-11-15T13:01:27.639Z,9.61
2022-11-15T13:02:21.698Z,9.61
2022-11-15T13:03:21.791Z,9.61
2022-11-15T13:04:21.864Z,9.61
2022-11-15T13:05:22.335Z,9.67
2022-11-15T13:06:22.042Z,9.61
2022-11-15T13:07:22.162Z,9.61
2022-11-15T13:08:22.186Z,9.56
2022-11-15T13:09:22.271Z,9.61
2022-11-15T13:10:27.584Z,9.61
2022-11-15T13:11:22.563Z,9.56
2022-11-15T13:12:22.659Z,9.67
2022-11-15T13:13:22.608Z,9.56
2022-11-15T13:14:22.670Z,9.67
2022-11-15T13:15:22.747Z,9.61
2022-11-15T13:16:22.841Z,9.56
2022-11-15T13:17:22.935Z,9.61
2022-11-15T13:18:22.982Z,9.61
2022-11-15T13:19:23.054Z,9.56
2022-11-15T13:20:23.160Z,9.61
2022-11-15T13:21:23.241Z,9.67